sensor_id;sensor_type;location;lat;lon;timestamp;temperature;humidity
3281;DHT22;1652;51.31805600;6.20194400;2024-01-15T00:00:29;1.20;1.00
3281;DHT22;1652;51.31805600;6.20194400;2024-01-15T00:02:56;1.10;1.00
3281;DHT22;1652;51.31805600;6.20194400;2024-01-15T00:05:24;1.10;13.70
3281;DHT22;1652;51.31805600;6.20194400;2024-01-15T00:07:51;1.20;9.20
3281;DHT22;1652;51.31805600;6.20194400;2024-01-15T00:10:18;1.30;1.00
3281;DHT22;1652;51.31805600;6.20194400;2024-01-15T00:12:45;1.30;3.10
3281;DHT22;1652;51.31805600;6.20194400;2024-01-15T00:15:12;1.30;3.50
3281;DHT22;1652;51.31805600;6.20194400;2024-01-15T00:17:39;1.30;24.60
3281;DHT22;1652;51.31805600;6.20194400;2024-01-15T00:20:06;1.20;44.20
3281;DHT22;1652;51.31805600;6.20194400;2024-01-15T00:22:33;1.20;29.10
3281;DHT22;1652;51.31805600;6.20194400;2024-01-15T00:25:02;1.30;7.80
3281;DHT22;1652;51.31805600;6.20194400;2024-01-15T00:27:29;1.30;39.20
3281;DHT22;1652;51.31805600;6.20194400;2024-01-15T00:29:56;1.30;95.90
3281;DHT22;1652;51.31805600;6.20194400;2024-01-15T00:32:23;1.30;74.40
3281;DHT22;1652;51.31805600;6.20194400;2024-01-15T00:34:50;1.30;68.70
3281;DHT22;1652;51.31805600;6.20194400;2024-01-15T00:37:18;1.30;33.50
3281;DHT22;1652;51.31805600;6.20194400;2024-01-15T00:39:44;1.30;31.70
3281;DHT22;1652;51.31805600;6.20194400;2024-01-15T00:42:11;1.30;42.60
3281;DHT22;1652;51.31805600;6.20194400;2024-01-15T00:44:38;1.20;32.30
3281;DHT22;1652;51.31805600;6.20194400;2024-01-15T00:47:05;1.30;33.20
3281;DHT22;1652;51.31805600;6.20194400;2024-01-15T00:49:32;1.30;43.70
3281;DHT22;1652;51.31805600;6.20194400;2024-01-15T00:51:59;1.30;53.90
3281;DHT22;1652;51.31805600;6.20194400;2024-01-15T00:54:26;1.30;33.20
3281;DHT22;1652;51.31805600;6.20194400;2024-01-15T00:56:53;1.30;36.20
3281;DHT22;1652;51.31805600;6.20194400;2024-01-15T00:59:21;1.30;23.30
3281;DHT22;1652;51.31805600;6.20194400;2024-01-15T01:01:48;1.30;69.90
3281;DHT22;1652;51.31805600;6.20194400;2024-01-15T01:04:16;1.40;50.40
3281;DHT22;1652;51.31805600;6.20194400;2024-01-15T01:06:43;1.40;37.30
3281;DHT22;1652;51.31805600;6.20194400;2024-01-15T01:09:10;1.50;18.70
3281;DHT22;1652;51.31805600;6.20194400;2024-01-15T01:11:37;1.40;8.90
3281;DHT22;1652;51.31805600;6.20194400;2024-01-15T01:14:04;1.40;22.90
3281;DHT22;1652;51.31805600;6.20194400;2024-01-15T01:16:31;1.30;16.80
3281;DHT22;1652;51.31805600;6.20194400;2024-01-15T01:19:06;1.40;26.40
3281;DHT22;1652;51.31805600;6.20194400;2024-01-15T01:21:34;1.50;67.90
3281;DHT22;1652;51.31805600;6.20194400;2024-01-15T01:24:01;1.50;31.30
3281;DHT22;1652;51.31805600;6.20194400;2024-01-15T01:26:28;1.40;42.70
3281;DHT22;1652;51.31805600;6.20194400;2024-01-15T01:28:55;1.50;61.00
3281;DHT22;1652;51.31805600;6.20194400;2024-01-15T01:31:23;1.50;54.80
3281;DHT22;1652;51.31805600;6.20194400;2024-01-15T01:33:50;1.50;62.00
3281;DHT22;1652;51.31805600;6.20194400;2024-01-15T01:36:18;1.50;29.20
3281;DHT22;1652;51.31805600;6.20194400;2024-01-15T01:38:45;1.40;30.10
3281;DHT22;1652;51.31805600;6.20194400;2024-01-15T01:41:12;1.40;44.40
3281;DHT22;1652;51.31805600;6.20194400;2024-01-15T01:43:39;1.40;65.50
3281;DHT22;1652;51.31805600;6.20194400;2024-01-15T01:46:06;1.50;55.30
3281;DHT22;1652;51.31805600;6.20194400;2024-01-15T01:48:35;1.50;71.00
3281;DHT22;1652;51.31805600;6.20194400;2024-01-15T01:51:03;1.50;69.40
3281;DHT22;1652;51.31805600;6.20194400;2024-01-15T01:53:32;1.50;48.60
3281;DHT22;1652;51.31805600;6.20194400;2024-01-15T01:56:00;1.50;46.40
3281;DHT22;1652;51.31805600;6.20194400;2024-01-15T01:58:28;1.50;53.80
3281;DHT22;1652;51.31805600;6.20194400;2024-01-15T02:00:55;1.50;55.20
3281;DHT22;1652;51.31805600;6.20194400;2024-01-15T02:03:22;1.50;49.80
3281;DHT22;1652;51.31805600;6.20194400;2024-01-15T02:05:50;1.40;7.50
3281;DHT22;1652;51.31805600;6.20194400;2024-01-15T02:08:18;1.40;54.90
3281;DHT22;1652;51.31805600;6.20194400;2024-01-15T02:10:45;1.50;39.80
3281;DHT22;1652;51.31805600;6.20194400;2024-01-15T02:13:12;1.40;15.80
3281;DHT22;1652;51.31805600;6.20194400;2024-01-15T02:15:38;1.40;28.50
3281;DHT22;1652;51.31805600;6.20194400;2024-01-15T02:18:07;1.50;43.10
3281;DHT22;1652;51.31805600;6.20194400;2024-01-15T02:20:35;1.40;57.90
3281;DHT22;1652;51.31805600;6.20194400;2024-01-15T02:23:09;1.50;46.40
3281;DHT22;1652;51.31805600;6.20194400;2024-01-15T02:25:43;1.50;5.70
3281;DHT22;1652;51.31805600;6.20194400;2024-01-15T02:28:15;1.50;54.20
3281;DHT22;1652;51.31805600;6.20194400;2024-01-15T02:30:43;1.60;21.50
3281;DHT22;1652;51.31805600;6.20194400;2024-01-15T02:33:11;1.50;1.00
3281;DHT22;1652;51.31805600;6.20194400;2024-01-15T02:35:39;1.50;28.70
3281;DHT22;1652;51.31805600;6.20194400;2024-01-15T02:38:07;1.60;8.60
3281;DHT22;1652;51.31805600;6.20194400;2024-01-15T02:40:34;1.60;49.10
3281;DHT22;1652;51.31805600;6.20194400;2024-01-15T02:43:01;1.60;1.00
3281;DHT22;1652;51.31805600;6.20194400;2024-01-15T02:48:06;1.50;1.00
3281;DHT22;1652;51.31805600;6.20194400;2024-01-15T02:50:33;1.50;1.00
3281;DHT22;1652;51.31805600;6.20194400;2024-01-15T02:53:00;1.60;1.00
3281;DHT22;1652;51.31805600;6.20194400;2024-01-15T02:55:27;1.50;1.00
3281;DHT22;1652;51.31805600;6.20194400;2024-01-15T02:57:56;1.50;1.00
3281;DHT22;1652;51.31805600;6.20194400;2024-01-15T03:00:23;1.50;19.50
3281;DHT22;1652;51.31805600;6.20194400;2024-01-15T03:02:51;1.60;15.70
3281;DHT22;1652;51.31805600;6.20194400;2024-01-15T03:05:18;1.50;25.40
3281;DHT22;1652;51.31805600;6.20194400;2024-01-15T03:07:45;1.50;53.50
3281;DHT22;1652;51.31805600;6.20194400;2024-01-15T03:10:12;1.50;14.00
3281;DHT22;1652;51.31805600;6.20194400;2024-01-15T03:12:39;1.50;30.60
3281;DHT22;1652;51.31805600;6.20194400;2024-01-15T03:15:06;1.40;37.00
3281;DHT22;1652;51.31805600;6.20194400;2024-01-15T03:17:33;1.40;57.10
3281;DHT22;1652;51.31805600;6.20194400;2024-01-15T03:20:00;1.40;36.50
3281;DHT22;1652;51.31805600;6.20194400;2024-01-15T03:22:27;1.40;23.00
3281;DHT22;1652;51.31805600;6.20194400;2024-01-15T03:24:54;1.40;82.40
3281;DHT22;1652;51.31805600;6.20194400;2024-01-15T03:27:21;1.50;93.30
3281;DHT22;1652;51.31805600;6.20194400;2024-01-15T03:29:48;1.40;21.90
3281;DHT22;1652;51.31805600;6.20194400;2024-01-15T03:32:15;1.30;1.00
3281;DHT22;1652;51.31805600;6.20194400;2024-01-15T03:34:43;1.30;14.30
3281;DHT22;1652;51.31805600;6.20194400;2024-01-15T03:37:10;1.30;37.00
3281;DHT22;1652;51.31805600;6.20194400;2024-01-15T03:39:37;1.30;26.20
3281;DHT22;1652;51.31805600;6.20194400;2024-01-15T03:42:04;1.30;12.50
3281;DHT22;1652;51.31805600;6.20194400;2024-01-15T03:44:31;1.20;22.50
3281;DHT22;1652;51.31805600;6.20194400;2024-01-15T03:46:58;1.20;79.30
3281;DHT22;1652;51.31805600;6.20194400;2024-01-15T03:49:25;1.30;37.30
3281;DHT22;1652;51.31805600;6.20194400;2024-01-15T03:51:52;1.30;38.90
3281;DHT22;1652;51.31805600;6.20194400;2024-01-15T03:54:19;1.30;28.10
3281;DHT22;1652;51.31805600;6.20194400;2024-01-15T03:56:46;1.40;24.60
3281;DHT22;1652;51.31805600;6.20194400;2024-01-15T03:59:13;1.30;16.10
3281;DHT22;1652;51.31805600;6.20194400;2024-01-15T04:01:40;1.40;29.90
3281;DHT22;1652;51.31805600;6.20194400;2024-01-15T04:04:07;1.40;71.20
3281;DHT22;1652;51.31805600;6.20194400;2024-01-15T04:06:34;1.40;40.00
3281;DHT22;1652;51.31805600;6.20194400;2024-01-15T04:09:02;1.40;21.60
3281;DHT22;1652;51.31805600;6.20194400;2024-01-15T04:11:29;1.40;15.30
3281;DHT22;1652;51.31805600;6.20194400;2024-01-15T04:13:56;1.50;14.90
3281;DHT22;1652;51.31805600;6.20194400;2024-01-15T04:16:23;1.40;14.30
3281;DHT22;1652;51.31805600;6.20194400;2024-01-15T04:18:50;1.30;1.00
3281;DHT22;1652;51.31805600;6.20194400;2024-01-15T04:21:18;1.30;12.20
3281;DHT22;1652;51.31805600;6.20194400;2024-01-15T04:23:45;1.40;61.30
3281;DHT22;1652;51.31805600;6.20194400;2024-01-15T04:26:12;1.40;15.70
3281;DHT22;1652;51.31805600;6.20194400;2024-01-15T04:28:39;1.40;7.60
3281;DHT22;1652;51.31805600;6.20194400;2024-01-15T04:31:07;1.40;1.00
3281;DHT22;1652;51.31805600;6.20194400;2024-01-15T04:33:34;1.40;27.00
3281;DHT22;1652;51.31805600;6.20194400;2024-01-15T04:36:03;1.40;5.20
3281;DHT22;1652;51.31805600;6.20194400;2024-01-15T04:38:30;1.50;1.00
3281;DHT22;1652;51.31805600;6.20194400;2024-01-15T04:40:59;1.40;1.00
3281;DHT22;1652;51.31805600;6.20194400;2024-01-15T04:43:26;1.40;19.60
3281;DHT22;1652;51.31805600;6.20194400;2024-01-15T04:45:53;1.50;1.00
3281;DHT22;1652;51.31805600;6.20194400;2024-01-15T04:48:19;1.40;1.00
3281;DHT22;1652;51.31805600;6.20194400;2024-01-15T04:50:47;1.40;1.10
3281;DHT22;1652;51.31805600;6.20194400;2024-01-15T04:53:14;1.50;1.00
3281;DHT22;1652;51.31805600;6.20194400;2024-01-15T04:55:41;1.50;10.60
3281;DHT22;1652;51.31805600;6.20194400;2024-01-15T04:58:07;1.40;1.00
3281;DHT22;1652;51.31805600;6.20194400;2024-01-15T05:00:34;1.40;1.00
3281;DHT22;1652;51.31805600;6.20194400;2024-01-15T05:03:01;1.30;1.00
3281;DHT22;1652;51.31805600;6.20194400;2024-01-15T05:05:28;1.40;1.00
3281;DHT22;1652;51.31805600;6.20194400;2024-01-15T05:07:55;1.40;1.00
3281;DHT22;1652;51.31805600;6.20194400;2024-01-15T05:10:22;1.40;20.90
3281;DHT22;1652;51.31805600;6.20194400;2024-01-15T05:12:49;1.40;13.60
3281;DHT22;1652;51.31805600;6.20194400;2024-01-15T05:15:16;1.50;3.90
3281;DHT22;1652;51.31805600;6.20194400;2024-01-15T05:17:49;1.40;5.10
3281;DHT22;1652;51.31805600;6.20194400;2024-01-15T05:20:16;1.50;1.00
3281;DHT22;1652;51.31805600;6.20194400;2024-01-15T05:22:43;1.50;1.00
3281;DHT22;1652;51.31805600;6.20194400;2024-01-15T05:25:10;1.50;1.00
3281;DHT22;1652;51.31805600;6.20194400;2024-01-15T05:27:37;1.50;1.00
3281;DHT22;1652;51.31805600;6.20194400;2024-01-15T05:30:05;1.50;1.00
3281;DHT22;1652;51.31805600;6.20194400;2024-01-15T05:32:32;1.60;1.00
3281;DHT22;1652;51.31805600;6.20194400;2024-01-15T05:34:59;1.60;1.00
3281;DHT22;1652;51.31805600;6.20194400;2024-01-15T05:37:26;1.50;1.00
3281;DHT22;1652;51.31805600;6.20194400;2024-01-15T05:39:53;1.60;1.00
3281;DHT22;1652;51.31805600;6.20194400;2024-01-15T05:42:20;1.60;1.00
3281;DHT22;1652;51.31805600;6.20194400;2024-01-15T05:44:47;1.60;1.00
3281;DHT22;1652;51.31805600;6.20194400;2024-01-15T05:47:13;1.70;1.00
3281;DHT22;1652;51.31805600;6.20194400;2024-01-15T05:49:40;1.70;1.00
3281;DHT22;1652;51.31805600;6.20194400;2024-01-15T05:52:07;1.60;1.00
3281;DHT22;1652;51.31805600;6.20194400;2024-01-15T05:54:34;1.70;1.00
3281;DHT22;1652;51.31805600;6.20194400;2024-01-15T05:57:01;1.70;1.00
3281;DHT22;1652;51.31805600;6.20194400;2024-01-15T05:59:28;1.70;1.00
3281;DHT22;1652;51.31805600;6.20194400;2024-01-15T06:01:58;1.70;1.00
3281;DHT22;1652;51.31805600;6.20194400;2024-01-15T06:04:25;1.60;1.00
3281;DHT22;1652;51.31805600;6.20194400;2024-01-15T06:06:52;1.60;1.00
3281;DHT22;1652;51.31805600;6.20194400;2024-01-15T06:09:19;1.70;1.00
3281;DHT22;1652;51.31805600;6.20194400;2024-01-15T06:11:46;1.60;1.00
3281;DHT22;1652;51.31805600;6.20194400;2024-01-15T06:14:13;1.50;1.00
3281;DHT22;1652;51.31805600;6.20194400;2024-01-15T06:16:40;1.50;1.00
3281;DHT22;1652;51.31805600;6.20194400;2024-01-15T06:19:07;1.50;1.00
3281;DHT22;1652;51.31805600;6.20194400;2024-01-15T06:21:34;1.40;1.00
3281;DHT22;1652;51.31805600;6.20194400;2024-01-15T06:24:01;1.50;6.50
3281;DHT22;1652;51.31805600;6.20194400;2024-01-15T06:26:28;1.50;1.00
3281;DHT22;1652;51.31805600;6.20194400;2024-01-15T06:28:55;1.50;1.00
3281;DHT22;1652;51.31805600;6.20194400;2024-01-15T06:31:22;1.50;12.30
3281;DHT22;1652;51.31805600;6.20194400;2024-01-15T06:33:49;1.50;16.20
3281;DHT22;1652;51.31805600;6.20194400;2024-01-15T06:36:16;1.60;23.10
3281;DHT22;1652;51.31805600;6.20194400;2024-01-15T06:38:43;1.60;61.00
3281;DHT22;1652;51.31805600;6.20194400;2024-01-15T06:41:11;1.60;49.10
3281;DHT22;1652;51.31805600;6.20194400;2024-01-15T06:43:38;1.70;31.80
3281;DHT22;1652;51.31805600;6.20194400;2024-01-15T06:46:05;1.60;3.40
3281;DHT22;1652;51.31805600;6.20194400;2024-01-15T06:48:34;1.50;1.00
3281;DHT22;1652;51.31805600;6.20194400;2024-01-15T06:51:01;1.50;1.00
3281;DHT22;1652;51.31805600;6.20194400;2024-01-15T06:53:28;1.60;19.00
3281;DHT22;1652;51.31805600;6.20194400;2024-01-15T06:55:55;1.60;1.00
3281;DHT22;1652;51.31805600;6.20194400;2024-01-15T06:58:22;1.70;39.40
3281;DHT22;1652;51.31805600;6.20194400;2024-01-15T07:00:49;1.70;1.00
3281;DHT22;1652;51.31805600;6.20194400;2024-01-15T07:03:16;1.70;1.00
3281;DHT22;1652;51.31805600;6.20194400;2024-01-15T07:05:43;1.70;1.00
3281;DHT22;1652;51.31805600;6.20194400;2024-01-15T07:08:10;1.70;1.00
3281;DHT22;1652;51.31805600;6.20194400;2024-01-15T07:10:37;1.60;1.00
3281;DHT22;1652;51.31805600;6.20194400;2024-01-15T07:13:04;1.60;1.00
3281;DHT22;1652;51.31805600;6.20194400;2024-01-15T07:15:32;1.70;1.00
3281;DHT22;1652;51.31805600;6.20194400;2024-01-15T07:17:59;1.60;1.00
3281;DHT22;1652;51.31805600;6.20194400;2024-01-15T07:20:26;1.70;1.00
3281;DHT22;1652;51.31805600;6.20194400;2024-01-15T07:22:53;1.60;1.00
3281;DHT22;1652;51.31805600;6.20194400;2024-01-15T07:25:20;1.60;1.00
3281;DHT22;1652;51.31805600;6.20194400;2024-01-15T07:27:47;1.70;1.00
3281;DHT22;1652;51.31805600;6.20194400;2024-01-15T07:30:14;1.60;1.00
3281;DHT22;1652;51.31805600;6.20194400;2024-01-15T07:32:42;1.60;1.00
3281;DHT22;1652;51.31805600;6.20194400;2024-01-15T07:35:09;1.70;1.00
3281;DHT22;1652;51.31805600;6.20194400;2024-01-15T07:37:37;1.70;1.00
3281;DHT22;1652;51.31805600;6.20194400;2024-01-15T07:40:04;1.60;1.00
3281;DHT22;1652;51.31805600;6.20194400;2024-01-15T07:42:34;1.60;1.00
3281;DHT22;1652;51.31805600;6.20194400;2024-01-15T07:45:01;1.60;1.00
3281;DHT22;1652;51.31805600;6.20194400;2024-01-15T07:47:28;1.60;1.00
3281;DHT22;1652;51.31805600;6.20194400;2024-01-15T07:49:55;1.60;1.00
3281;DHT22;1652;51.31805600;6.20194400;2024-01-15T07:52:27;1.60;1.00
3281;DHT22;1652;51.31805600;6.20194400;2024-01-15T07:54:54;1.50;1.00
3281;DHT22;1652;51.31805600;6.20194400;2024-01-15T07:57:21;1.50;1.00
3281;DHT22;1652;51.31805600;6.20194400;2024-01-15T07:59:49;1.40;1.00
3281;DHT22;1652;51.31805600;6.20194400;2024-01-15T08:02:16;1.40;1.00
3281;DHT22;1652;51.31805600;6.20194400;2024-01-15T08:04:43;1.40;1.00
3281;DHT22;1652;51.31805600;6.20194400;2024-01-15T08:07:11;1.40;1.00
3281;DHT22;1652;51.31805600;6.20194400;2024-01-15T08:09:38;1.40;1.00
3281;DHT22;1652;51.31805600;6.20194400;2024-01-15T08:12:05;1.30;1.00
3281;DHT22;1652;51.31805600;6.20194400;2024-01-15T08:14:33;1.20;1.00
3281;DHT22;1652;51.31805600;6.20194400;2024-01-15T08:17:00;1.30;23.30
3281;DHT22;1652;51.31805600;6.20194400;2024-01-15T08:19:28;1.30;2.20
3281;DHT22;1652;51.31805600;6.20194400;2024-01-15T08:21:55;1.30;1.00
3281;DHT22;1652;51.31805600;6.20194400;2024-01-15T08:24:22;1.40;26.40
3281;DHT22;1652;51.31805600;6.20194400;2024-01-15T08:26:49;1.40;14.80
3281;DHT22;1652;51.31805600;6.20194400;2024-01-15T08:29:16;1.40;28.30
3281;DHT22;1652;51.31805600;6.20194400;2024-01-15T08:31:45;1.40;1.00
3281;DHT22;1652;51.31805600;6.20194400;2024-01-15T08:34:12;1.40;1.00
3281;DHT22;1652;51.31805600;6.20194400;2024-01-15T08:36:39;1.30;4.00
3281;DHT22;1652;51.31805600;6.20194400;2024-01-15T08:39:07;1.40;57.20
3281;DHT22;1652;51.31805600;6.20194400;2024-01-15T08:41:36;1.40;14.80
3281;DHT22;1652;51.31805600;6.20194400;2024-01-15T08:44:03;1.30;15.50
3281;DHT22;1652;51.31805600;6.20194400;2024-01-15T08:46:30;1.30;17.10
3281;DHT22;1652;51.31805600;6.20194400;2024-01-15T08:48:57;1.30;16.50
3281;DHT22;1652;51.31805600;6.20194400;2024-01-15T08:51:24;1.40;36.60
3281;DHT22;1652;51.31805600;6.20194400;2024-01-15T08:53:51;1.40;12.10
3281;DHT22;1652;51.31805600;6.20194400;2024-01-15T08:56:18;1.40;27.10
3281;DHT22;1652;51.31805600;6.20194400;2024-01-15T08:58:45;1.50;44.10
3281;DHT22;1652;51.31805600;6.20194400;2024-01-15T09:01:13;1.50;36.70
3281;DHT22;1652;51.31805600;6.20194400;2024-01-15T09:03:40;1.50;25.40
3281;DHT22;1652;51.31805600;6.20194400;2024-01-15T09:06:10;1.60;9.30
3281;DHT22;1652;51.31805600;6.20194400;2024-01-15T09:08:37;1.50;1.00
3281;DHT22;1652;51.31805600;6.20194400;2024-01-15T09:11:04;1.60;6.40
3281;DHT22;1652;51.31805600;6.20194400;2024-01-15T09:13:31;1.60;1.00
3281;DHT22;1652;51.31805600;6.20194400;2024-01-15T09:15:58;1.80;1.00
3281;DHT22;1652;51.31805600;6.20194400;2024-01-15T09:18:27;1.70;1.00
3281;DHT22;1652;51.31805600;6.20194400;2024-01-15T09:20:54;1.70;1.00
3281;DHT22;1652;51.31805600;6.20194400;2024-01-15T09:23:21;1.70;1.00
3281;DHT22;1652;51.31805600;6.20194400;2024-01-15T09:25:48;1.60;1.00
3281;DHT22;1652;51.31805600;6.20194400;2024-01-15T09:28:16;1.60;1.00
3281;DHT22;1652;51.31805600;6.20194400;2024-01-15T09:30:43;1.60;1.00
3281;DHT22;1652;51.31805600;6.20194400;2024-01-15T09:33:12;1.60;1.00
3281;DHT22;1652;51.31805600;6.20194400;2024-01-15T09:35:39;1.80;1.00
3281;DHT22;1652;51.31805600;6.20194400;2024-01-15T09:38:06;1.80;1.00
3281;DHT22;1652;51.31805600;6.20194400;2024-01-15T09:40:33;1.90;1.00
3281;DHT22;1652;51.31805600;6.20194400;2024-01-15T09:43:01;2.00;1.00
3281;DHT22;1652;51.31805600;6.20194400;2024-01-15T09:48:06;1.90;1.00
3281;DHT22;1652;51.31805600;6.20194400;2024-01-15T09:50:33;1.80;1.00
3281;DHT22;1652;51.31805600;6.20194400;2024-01-15T09:53:00;1.80;1.00
3281;DHT22;1652;51.31805600;6.20194400;2024-01-15T09:55:28;1.80;1.00
3281;DHT22;1652;51.31805600;6.20194400;2024-01-15T09:57:56;1.70;1.00
3281;DHT22;1652;51.31805600;6.20194400;2024-01-15T10:00:25;1.70;1.00
3281;DHT22;1652;51.31805600;6.20194400;2024-01-15T10:02:52;1.70;1.00
3281;DHT22;1652;51.31805600;6.20194400;2024-01-15T10:05:19;1.70;1.00
3281;DHT22;1652;51.31805600;6.20194400;2024-01-15T10:07:47;1.80;1.00
3281;DHT22;1652;51.31805600;6.20194400;2024-01-15T10:10:16;1.90;1.00
3281;DHT22;1652;51.31805600;6.20194400;2024-01-15T10:12:43;1.80;1.00
3281;DHT22;1652;51.31805600;6.20194400;2024-01-15T10:15:11;1.80;1.00
3281;DHT22;1652;51.31805600;6.20194400;2024-01-15T10:17:39;1.80;1.00
3281;DHT22;1652;51.31805600;6.20194400;2024-01-15T10:20:09;1.90;1.00
3281;DHT22;1652;51.31805600;6.20194400;2024-01-15T10:22:41;2.00;1.00
3281;DHT22;1652;51.31805600;6.20194400;2024-01-15T10:25:10;2.10;1.00
3281;DHT22;1652;51.31805600;6.20194400;2024-01-15T10:27:37;2.20;1.00
3281;DHT22;1652;51.31805600;6.20194400;2024-01-15T10:30:05;2.30;1.00
3281;DHT22;1652;51.31805600;6.20194400;2024-01-15T10:32:33;2.30;1.00
3281;DHT22;1652;51.31805600;6.20194400;2024-01-15T10:35:00;2.30;1.00
3281;DHT22;1652;51.31805600;6.20194400;2024-01-15T10:37:27;2.30;1.00
3281;DHT22;1652;51.31805600;6.20194400;2024-01-15T10:39:55;2.30;1.00
3281;DHT22;1652;51.31805600;6.20194400;2024-01-15T10:42:22;2.30;1.00
3281;DHT22;1652;51.31805600;6.20194400;2024-01-15T10:44:49;2.40;1.00
3281;DHT22;1652;51.31805600;6.20194400;2024-01-15T10:47:16;2.40;1.00
3281;DHT22;1652;51.31805600;6.20194400;2024-01-15T10:49:45;2.60;1.00
3281;DHT22;1652;51.31805600;6.20194400;2024-01-15T10:52:13;2.70;1.00
3281;DHT22;1652;51.31805600;6.20194400;2024-01-15T10:54:41;2.80;1.00
3281;DHT22;1652;51.31805600;6.20194400;2024-01-15T10:57:10;2.70;1.00
3281;DHT22;1652;51.31805600;6.20194400;2024-01-15T10:59:37;2.80;1.00
3281;DHT22;1652;51.31805600;6.20194400;2024-01-15T11:02:04;2.90;1.00
3281;DHT22;1652;51.31805600;6.20194400;2024-01-15T11:04:32;2.80;99.90
3281;DHT22;1652;51.31805600;6.20194400;2024-01-15T11:07:00;2.80;99.90
3281;DHT22;1652;51.31805600;6.20194400;2024-01-15T11:09:27;2.80;99.90
3281;DHT22;1652;51.31805600;6.20194400;2024-01-15T11:12:15;2.80;99.90
3281;DHT22;1652;51.31805600;6.20194400;2024-01-15T11:14:48;2.90;99.90
3281;DHT22;1652;51.31805600;6.20194400;2024-01-15T11:17:17;2.80;99.90
3281;DHT22;1652;51.31805600;6.20194400;2024-01-15T11:19:46;2.80;99.90
3281;DHT22;1652;51.31805600;6.20194400;2024-01-15T11:25:18;2.90;99.90
3281;DHT22;1652;51.31805600;6.20194400;2024-01-15T11:30:12;2.90;99.90
3281;DHT22;1652;51.31805600;6.20194400;2024-01-15T11:32:40;2.90;99.90
3281;DHT22;1652;51.31805600;6.20194400;2024-01-15T11:35:10;3.00;99.90
3281;DHT22;1652;51.31805600;6.20194400;2024-01-15T11:43:00;3.20;99.90
3281;DHT22;1652;51.31805600;6.20194400;2024-01-15T11:48:13;3.00;99.90
3281;DHT22;1652;51.31805600;6.20194400;2024-01-15T11:50:43;3.00;99.90
3281;DHT22;1652;51.31805600;6.20194400;2024-01-15T11:53:33;2.90;99.90
3281;DHT22;1652;51.31805600;6.20194400;2024-01-15T11:56:03;2.90;99.90
3281;DHT22;1652;51.31805600;6.20194400;2024-01-15T11:58:33;2.70;99.90
3281;DHT22;1652;51.31805600;6.20194400;2024-01-15T12:01:02;2.70;99.90
3281;DHT22;1652;51.31805600;6.20194400;2024-01-15T12:03:32;2.70;99.90
3281;DHT22;1652;51.31805600;6.20194400;2024-01-15T12:06:00;2.60;99.90
3281;DHT22;1652;51.31805600;6.20194400;2024-01-15T12:08:28;2.60;99.90
3281;DHT22;1652;51.31805600;6.20194400;2024-01-15T12:10:55;2.60;99.90
3281;DHT22;1652;51.31805600;6.20194400;2024-01-15T12:13:23;2.90;99.90
3281;DHT22;1652;51.31805600;6.20194400;2024-01-15T12:15:50;2.90;99.90
3281;DHT22;1652;51.31805600;6.20194400;2024-01-15T12:18:18;3.00;99.90
3281;DHT22;1652;51.31805600;6.20194400;2024-01-15T12:20:46;3.00;99.90
3281;DHT22;1652;51.31805600;6.20194400;2024-01-15T12:23:14;3.10;99.90
3281;DHT22;1652;51.31805600;6.20194400;2024-01-15T12:25:42;3.00;99.90
3281;DHT22;1652;51.31805600;6.20194400;2024-01-15T12:28:09;2.90;99.90
3281;DHT22;1652;51.31805600;6.20194400;2024-01-15T12:30:37;2.90;99.90
3281;DHT22;1652;51.31805600;6.20194400;2024-01-15T12:33:06;2.80;99.90
3281;DHT22;1652;51.31805600;6.20194400;2024-01-15T12:35:34;2.80;99.90
3281;DHT22;1652;51.31805600;6.20194400;2024-01-15T12:38:04;2.90;99.90
3281;DHT22;1652;51.31805600;6.20194400;2024-01-15T12:40:33;2.80;99.90
3281;DHT22;1652;51.31805600;6.20194400;2024-01-15T12:43:03;2.70;99.90
3281;DHT22;1652;51.31805600;6.20194400;2024-01-15T12:48:05;2.80;99.90
3281;DHT22;1652;51.31805600;6.20194400;2024-01-15T12:50:33;3.00;99.90
3281;DHT22;1652;51.31805600;6.20194400;2024-01-15T12:53:00;3.30;99.90
3281;DHT22;1652;51.31805600;6.20194400;2024-01-15T12:55:28;3.50;99.90
3281;DHT22;1652;51.31805600;6.20194400;2024-01-15T12:57:55;3.40;99.90
3281;DHT22;1652;51.31805600;6.20194400;2024-01-15T13:00:22;3.20;99.90
3281;DHT22;1652;51.31805600;6.20194400;2024-01-15T13:02:50;3.00;99.90
3281;DHT22;1652;51.31805600;6.20194400;2024-01-15T13:05:17;2.90;99.90
3281;DHT22;1652;51.31805600;6.20194400;2024-01-15T13:07:45;2.80;99.90
3281;DHT22;1652;51.31805600;6.20194400;2024-01-15T13:10:12;2.70;99.90
3281;DHT22;1652;51.31805600;6.20194400;2024-01-15T13:12:40;2.60;99.90
3281;DHT22;1652;51.31805600;6.20194400;2024-01-15T13:15:08;2.50;99.90
3281;DHT22;1652;51.31805600;6.20194400;2024-01-15T13:17:41;2.50;99.90
3281;DHT22;1652;51.31805600;6.20194400;2024-01-15T13:20:09;2.50;99.90
3281;DHT22;1652;51.31805600;6.20194400;2024-01-15T13:22:38;2.40;99.90
3281;DHT22;1652;51.31805600;6.20194400;2024-01-15T13:25:07;2.40;99.90
3281;DHT22;1652;51.31805600;6.20194400;2024-01-15T13:27:35;2.40;1.00
3281;DHT22;1652;51.31805600;6.20194400;2024-01-15T13:30:05;2.40;1.00
3281;DHT22;1652;51.31805600;6.20194400;2024-01-15T13:32:34;2.30;1.00
3281;DHT22;1652;51.31805600;6.20194400;2024-01-15T13:35:01;2.30;1.00
3281;DHT22;1652;51.31805600;6.20194400;2024-01-15T13:37:29;2.30;1.00
3281;DHT22;1652;51.31805600;6.20194400;2024-01-15T13:39:56;2.30;1.00
3281;DHT22;1652;51.31805600;6.20194400;2024-01-15T13:42:23;2.30;1.00
3281;DHT22;1652;51.31805600;6.20194400;2024-01-15T13:44:50;2.40;1.00
3281;DHT22;1652;51.31805600;6.20194400;2024-01-15T13:47:18;2.60;1.00
3281;DHT22;1652;51.31805600;6.20194400;2024-01-15T13:49:45;2.60;1.00
3281;DHT22;1652;51.31805600;6.20194400;2024-01-15T13:52:12;2.60;1.00
3281;DHT22;1652;51.31805600;6.20194400;2024-01-15T13:54:40;2.50;1.00
3281;DHT22;1652;51.31805600;6.20194400;2024-01-15T13:57:16;2.50;1.00
3281;DHT22;1652;51.31805600;6.20194400;2024-01-15T13:59:45;2.50;1.00
3281;DHT22;1652;51.31805600;6.20194400;2024-01-15T14:02:12;2.50;1.00
3281;DHT22;1652;51.31805600;6.20194400;2024-01-15T14:04:43;2.50;1.00
3281;DHT22;1652;51.31805600;6.20194400;2024-01-15T14:07:10;2.50;1.00
3281;DHT22;1652;51.31805600;6.20194400;2024-01-15T14:09:37;2.50;1.00
3281;DHT22;1652;51.31805600;6.20194400;2024-01-15T14:12:05;2.40;1.00
3281;DHT22;1652;51.31805600;6.20194400;2024-01-15T14:14:33;2.40;1.00
3281;DHT22;1652;51.31805600;6.20194400;2024-01-15T14:17:00;2.40;1.00
3281;DHT22;1652;51.31805600;6.20194400;2024-01-15T14:19:27;2.40;1.00
3281;DHT22;1652;51.31805600;6.20194400;2024-01-15T14:21:55;2.40;1.00
3281;DHT22;1652;51.31805600;6.20194400;2024-01-15T14:24:22;2.40;1.00
3281;DHT22;1652;51.31805600;6.20194400;2024-01-15T14:26:49;2.40;1.00